Time;durP1;ratioP1;P1;durP2;ratioP2;P2;SDS_P1;SDS_P2;PMS_P1;PMS_P2;Temp;Humidity;BMP_temperature;BMP_pressure;BME280_temperature;BME280_humidity;BME280_pressure;Samples;Min_cycle;Max_cycle;Signal;HPM_P1;HPM_P2
2022/12/21 00:01:54;;;;;;;58.83;18.30;;;8.40;99.90;;;;;;5092374;27;20482;-80
2022/12/21 00:04:20;;;;;;;53.30;19.80;;;7.90;99.90;;;;;;5094034;27;20435;-80
2022/12/21 00:06:46;;;;;;;83.47;21.58;;;8.20;99.90;;;;;;5092830;27;20047;-81
2022/12/21 00:09:14;;;;;;;67.80;19.67;;;8.90;99.90;;;;;;5076609;27;20450;-81
2022/12/21 00:11:40;;;;;;;90.65;22.20;;;8.10;99.90;;;;;;5109969;27;20058;-79
2022/12/21 00:14:06;;;;;;;89.95;22.08;;;7.90;99.90;;;;;;5127657;27;20043;-79
2022/12/21 00:16:35;;;;;;;100.03;19.30;;;7.70;99.90;;;;;;5129407;27;20080;-79
2022/12/21 00:19:01;;;;;;;93.80;20.42;;;8.50;99.90;;;;;;5109151;27;20054;-79
2022/12/21 00:21:29;;;;;;;251.55;27.08;;;7.90;99.90;;;;;;5110398;27;20126;-80
2022/12/21 00:23:59;;;;;;;171.13;20.35;;;7.60;99.90;;;;;;5109409;27;20092;-80
2022/12/21 00:26:27;;;;;;;194.70;21.33;;;7.90;99.90;;;;;;5076166;27;20490;-80
2022/12/21 00:28:54;;;;;;;145.52;20.88;;;7.60;99.90;;;;;;5110551;27;20043;-82
2022/12/21 00:31:23;;;;;;;128.68;18.83;;;7.90;99.90;;;;;;5108525;27;20051;-84
2022/12/21 00:33:49;;;;;;;206.07;21.73;;;8.50;99.90;;;;;;5110452;27;20070;-84
2022/12/21 00:36:17;;;;;;;164.63;19.33;;;7.60;99.90;;;;;;5109053;27;20107;-84
2022/12/21 00:38:44;;;;;;;157.98;18.20;;;7.60;99.90;;;;;;5110238;27;20039;-85
2022/12/21 00:41:14;;;;;;;249.90;20.75;;;7.50;99.90;;;;;;5108738;27;20043;-85
2022/12/21 00:43:42;;;;;;;255.60;21.50;;;7.90;99.90;;;;;;5092282;27;20078;-85
2022/12/21 00:46:21;;;;;;;236.93;21.77;;;8.00;99.90;;;;;;5110604;27;20495;-84
2022/12/21 00:48:47;;;;;;;111.05;17.10;;;7.50;99.90;;;;;;5092045;27;20115;-84
2022/12/21 00:51:19;;;;;;;202.82;20.08;;;8.10;99.90;;;;;;5110541;27;20082;-84
2022/12/21 00:53:45;;;;;;;122.40;18.08;;;8.50;99.90;;;;;;5092279;27;20545;-84
2022/12/21 00:56:11;;;;;;;399.42;29.85;;;7.40;99.90;;;;;;5093479;27;20507;-84
2022/12/21 00:58:37;;;;;;;105.45;16.98;;;7.40;99.90;;;;;;5110003;27;20053;-85
2022/12/21 01:01:06;;;;;;;75.00;16.45;;;7.40;99.90;;;;;;5109834;27;20438;-84
2022/12/21 01:03:32;;;;;;;176.73;21.08;;;7.40;99.90;;;;;;5093086;27;20039;-83
2022/12/21 01:05:58;;;;;;;121.18;16.55;;;7.40;99.90;;;;;;5108533;27;20042;-80
2022/12/21 01:08:25;;;;;;;125.55;17.52;;;8.00;99.90;;;;;;5110432;27;20039;-79
2022/12/21 01:10:59;;;;;;;113.25;17.48;;;8.10;99.90;;;;;;5091355;27;20043;-80
2022/12/21 01:13:26;;;;;;;163.02;19.40;;;7.30;99.90;;;;;;5109732;27;20043;-79
2022/12/21 01:15:52;;;;;;;151.68;19.02;;;7.20;99.90;;;;;;5109804;27;20447;-80
2022/12/21 01:18:17;;;;;;;72.97;14.70;;;7.20;99.90;;;;;;5108269;27;20035;-80
2022/12/21 01:20:48;;;;;;;90.57;15.63;;;7.80;99.90;;;;;;5075468;27;20043;-80
2022/12/21 01:23:15;;;;;;;120.25;17.67;;;7.20;99.90;;;;;;5090270;27;20130;-80
2022/12/21 01:25:44;;;;;;;53.72;13.57;;;7.10;99.90;;;;;;5128235;27;20509;-80
2022/12/21 01:28:11;;;;;;;113.35;16.38;;;7.90;99.90;;;;;;5108807;27;20431;-81
2022/12/21 01:30:38;;;;;;;67.47;14.40;;;7.00;99.90;;;;;;5109650;27;20051;-81
2022/12/21 01:33:05;;;;;;;65.70;13.15;;;7.90;99.90;;;;;;5127382;27;20047;-81
2022/12/21 01:35:30;;;;;;;134.55;18.35;;;7.00;99.90;;;;;;5108547;27;20045;-81
2022/12/21 01:37:56;;;;;;;108.38;16.80;;;7.90;99.90;;;;;;5109506;27;20039;-81
2022/12/21 01:40:22;;;;;;;58.97;13.98;;;7.30;99.90;;;;;;5091388;27;20047;-81
2022/12/21 01:42:47;;;;;;;99.82;16.60;;;8.10;99.90;;;;;;5127800;27;20127;-80
2022/12/21 01:45:13;;;;;;;140.10;17.70;;;7.50;99.90;;;;;;5127069;27;20431;-80
2022/12/21 01:47:44;;;;;;;93.53;15.45;;;6.90;99.90;;;;;;5127797;27;20114;-80
2022/12/21 01:50:35;;;;;;;120.75;16.52;;;7.30;99.90;;;;;;5109265;27;20054;-80
2022/12/21 01:53:23;;;;;;;145.55;18.13;;;6.90;99.90;;;;;;5107397;27;20047;-81
2022/12/21 01:55:54;;;;;;;94.60;15.18;;;7.60;99.90;;;;;;5079607;27;20074;-80
2022/12/21 01:58:22;;;;;;;114.68;15.63;;;7.70;99.90;;;;;;5108033;27;20127;-80
2022/12/21 02:00:48;;;;;;;102.15;15.35;;;6.90;99.90;;;;;;5108153;27;20147;-79
2022/12/21 02:03:18;;;;;;;121.60;15.70;;;7.80;99.90;;;;;;5108537;27;20077;-79
2022/12/21 02:05:58;;;;;;;76.85;14.35;;;6.90;99.90;;;;;;5107636;27;20653;-81
2022/12/21 02:08:26;;;;;;;127.53;16.35;;;6.90;99.90;;;;;;5091442;27;20055;-79
2022/12/21 02:10:53;;;;;;;92.15;15.45;;;6.90;99.90;;;;;;5126520;27;20394;-79
2022/12/21 02:13:19;;;;;;;101.85;16.17;;;7.80;99.90;;;;;;5108551;27;20054;-80
2022/12/21 02:16:00;;;;;;;116.10;18.15;;;6.90;99.90;;;;;;5107381;27;20039;-80
2022/12/21 02:18:50;;;;;;;97.40;15.35;;;6.80;99.90;;;;;;5126114;27;20050;-80
2022/12/21 02:21:23;;;;;;;136.48;15.75;;;6.80;99.90;;;;;;5126847;27;20043;-80
2022/12/21 02:24:23;;;;;;;161.63;17.55;;;6.80;99.90;;;;;;5107430;27;20383;-80
2022/12/21 02:27:13;;;;;;;171.45;17.30;;;6.80;99.90;;;;;;5126550;27;20043;-80
2022/12/21 02:29:57;;;;;;;192.10;16.42;;;6.80;99.90;;;;;;5108369;28;20137;-81
2022/12/21 02:32:42;;;;;;;202.40;15.82;;;6.80;99.90;;;;;;5107228;28;20065;-81
2022/12/21 02:35:26;;;;;;;209.80;17.30;;;6.70;99.90;;;;;;5108042;28;20124;-81
2022/12/21 02:38:04;;;;;;;191.43;16.00;;;6.70;99.90;;;;;;5108024;27;20126;-81
2022/12/21 02:40:49;;;;;;;177.52;15.38;;;6.70;99.90;;;;;;5090431;28;20046;-80
2022/12/21 02:46:20;;;;;;;121.75;11.45;;;6.60;99.90;;;;;;5107305;28;20063;-81
2022/12/21 02:48:51;;;;;;;183.38;13.20;;;6.50;99.90;;;;;;5107114;28;20039;-80
2022/12/21 02:51:23;;;;;;;241.77;15.77;;;6.50;99.90;;;;;;5108199;28;20047;-80
2022/12/21 02:53:49;;;;;;;247.77;18.10;;;7.20;99.90;;;;;;5107479;28;20046;-79
2022/12/21 02:56:17;;;;;;;128.23;12.95;;;6.40;99.90;;;;;;5074210;28;20054;-81
2022/12/21 02:58:43;;;;;;;76.50;12.93;;;6.50;99.90;;;;;;5108039;28;20395;-80
2022/12/21 03:01:27;;;;;;;155.85;14.70;;;7.20;99.90;;;;;;5107151;28;20039;-81
2022/12/21 03:04:04;;;;;;;89.72;11.70;;;6.40;99.90;;;;;;5090722;28;20497;-81
2022/12/21 03:06:58;;;;;;;110.38;12.48;;;6.40;99.90;;;;;;5090292;28;20092;-81
2022/12/21 03:09:24;;;;;;;126.43;12.32;;;6.40;99.90;;;;;;5107925;28;20093;-81
2022/12/21 03:12:23;;;;;;;134.70;12.13;;;6.40;99.90;;;;;;5090533;28;20074;-81
2022/12/21 03:15:19;;;;;;;183.00;16.90;;;6.40;99.90;;;;;;5089622;28;20054;-81
2022/12/21 03:17:55;;;;;;;151.85;12.90;;;7.00;99.90;;;;;;5106442;28;20059;-82
2022/12/21 03:20:42;;;;;;;117.10;12.90;;;6.70;99.90;;;;;;5107697;27;20100;-81
2022/12/21 03:23:38;;;;;;;161.20;13.80;;;6.30;99.90;;;;;;5106416;28;20540;-80
2022/12/21 03:26:09;;;;;;;151.57;13.00;;;6.30;99.90;;;;;;5069236;28;20082;-80
2022/12/21 03:28:39;;;;;;;101.82;12.25;;;6.30;99.90;;;;;;5089733;28;20043;-81
2022/12/21 03:31:11;;;;;;;202.25;12.50;;;6.50;99.90;;;;;;5090083;28;20051;-80
2022/12/21 03:33:43;;;;;;;123.13;9.30;;;7.10;99.90;;;;;;5107562;28;20103;-80
2022/12/21 03:36:44;;;;;;;214.73;14.00;;;6.70;99.90;;;;;;5106898;28;20402;-81
2022/12/21 03:39:15;;;;;;;145.85;11.18;;;6.20;99.90;;;;;;5093013;28;20499;-81
2022/12/21 03:41:49;;;;;;;77.20;11.02;;;6.10;99.90;;;;;;5107164;28;20043;-81
2022/12/21 03:44:21;;;;;;;170.88;12.88;;;6.10;99.90;;;;;;5090543;28;20559;-81
2022/12/21 03:46:52;;;;;;;132.50;11.07;;;7.20;99.90;;;;;;5110309;27;20444;-82
2022/12/21 03:49:25;;;;;;;109.22;10.77;;;6.10;99.90;;;;;;5111192;27;20046;-81
2022/12/21 03:52:04;;;;;;;90.25;9.85;;;6.10;99.90;;;;;;5110888;27;20245;-81
2022/12/21 03:54:34;;;;;;;122.50;11.40;;;6.10;99.90;;;;;;5110679;27;20043;-81
2022/12/21 03:56:59;;;;;;;118.88;11.02;;;6.10;99.90;;;;;;5093831;27;20043;-81
2022/12/21 03:59:26;;;;;;;129.77;14.13;;;6.10;99.90;;;;;;5111032;27;20051;-84
2022/12/21 04:02:06;;;;;;;113.05;11.82;;;6.10;99.90;;;;;;5110154;27;20040;-84
2022/12/21 04:04:42;;;;;;;78.03;10.20;;;6.20;99.90;;;;;;5111188;27;20612;-84
2022/12/21 04:07:09;;;;;;;125.55;11.90;;;6.20;99.90;;;;;;5110641;27;20438;-84
2022/12/21 04:09:37;;;;;;;96.20;11.07;;;6.20;99.90;;;;;;5110829;27;20035;-84
2022/12/21 04:14:49;;;;;;;117.93;12.02;;;6.20;99.90;;;;;;5110023;27;20054;-84
2022/12/21 04:17:14;;;;;;;103.20;11.05;;;6.20;99.90;;;;;;5093095;27;20035;-80
2022/12/21 04:19:58;;;;;;;131.15;12.60;;;6.20;99.90;;;;;;5093048;27;20048;-79
2022/12/21 04:28:17;;;;;;;84.60;9.00;;;6.60;99.90;;;;;;5110104;27;20451;-80
2022/12/21 04:30:44;;;;;;;192.10;13.65;;;6.10;99.90;;;;;;5110604;27;20522;-80
2022/12/21 04:33:13;;;;;;;73.82;9.70;;;6.10;99.90;;;;;;5110182;27;20051;-80
2022/12/21 04:37:30;;;;;;;119.20;11.88;;;6.10;99.90;;;;;;5092871;27;20502;-80
2022/12/21 04:38:26;;;;;;;151.18;12.02;;;6.10;99.90;;;;;;5110822;27;20390;-79
2022/12/21 04:40:55;;;;;;;148.27;13.35;;;7.10;99.90;;;;;;5109598;27;20505;-79
2022/12/21 04:43:22;;;;;;;177.93;12.90;;;6.10;99.90;;;;;;5093013;27;20035;-79
2022/12/21 04:45:48;;;;;;;124.60;10.10;;;6.10;99.90;;;;;;5092764;27;20126;-80
2022/12/21 04:48:15;;;;;;;155.45;13.27;;;6.10;99.90;;;;;;5093845;27;20102;-79
2022/12/21 04:50:42;;;;;;;164.05;13.02;;;6.70;99.90;;;;;;5110394;27;20050;-80
2022/12/21 04:53:08;;;;;;;118.65;10.25;;;6.80;99.90;;;;;;5109864;27;20051;-80
2022/12/21 04:55:33;;;;;;;134.18;13.55;;;6.10;99.90;;;;;;5092987;27;20039;-80
2022/12/21 04:57:59;;;;;;;102.13;9.50;;;7.10;99.90;;;;;;5127075;27;20054;-80
2022/12/21 05:00:25;;;;;;;152.00;12.70;;;6.10;99.90;;;;;;5092683;27;20047;-81
2022/12/21 05:02:51;;;;;;;92.40;11.18;;;6.40;99.90;;;;;;5092978;27;20043;-79
2022/12/21 05:05:16;;;;;;;63.58;9.45;;;6.00;99.90;;;;;;5109677;27;20043;-79
2022/12/21 05:07:42;;;;;;;98.75;11.90;;;6.00;99.90;;;;;;5109956;27;20139;-79
2022/12/21 05:10:08;;;;;;;101.60;11.35;;;6.10;99.90;;;;;;5092309;27;20039;-79
2022/12/21 05:12:34;;;;;;;114.97;11.30;;;6.10;99.90;;;;;;5109937;27;20533;-79
2022/12/21 05:15:00;;;;;;;100.28;10.90;;;6.50;99.90;;;;;;5091850;27;20130;-80
2022/12/21 05:17:25;;;;;;;104.78;11.32;;;7.00;99.90;;;;;;5075538;27;20130;-80
2022/12/21 05:19:51;;;;;;;124.53;12.70;;;6.20;99.90;;;;;;5091834;27;20039;-80
2022/12/21 05:22:17;;;;;;;71.97;10.63;;;6.90;99.90;;;;;;5074593;27;20047;-80
2022/12/21 05:24:46;;;;;;;214.82;14.40;;;6.80;99.90;;;;;;5075478;27;20054;-80
2022/12/21 05:27:12;;;;;;;116.13;12.75;;;7.10;99.90;;;;;;5092236;27;20058;-80
2022/12/21 05:29:38;;;;;;;125.78;11.40;;;6.50;99.90;;;;;;5075729;27;20031;-79
2022/12/21 05:32:04;;;;;;;69.88;10.75;;;6.20;99.90;;;;;;5107964;27;20062;-80
2022/12/21 05:34:30;;;;;;;142.88;13.13;;;6.10;99.90;;;;;;5075254;27;20069;-80
2022/12/21 05:36:56;;;;;;;127.32;11.25;;;7.10;99.90;;;;;;5091318;27;20556;-80
2022/12/21 05:39:21;;;;;;;143.27;11.10;;;6.10;99.90;;;;;;5109029;27;20092;-83
2022/12/21 05:41:47;;;;;;;131.05;10.48;;;6.20;99.90;;;;;;5091188;27;20567;-82
2022/12/21 05:44:13;;;;;;;188.32;11.57;;;6.10;99.90;;;;;;5091702;27;20047;-82
2022/12/21 05:46:38;;;;;;;77.95;9.70;;;7.30;99.90;;;;;;5092763;27;20043;-82
2022/12/21 05:49:04;;;;;;;85.63;9.68;;;6.10;99.90;;;;;;5108640;27;20592;-82
2022/12/21 05:51:30;;;;;;;112.28;11.48;;;7.00;99.90;;;;;;5091473;27;20051;-81
2022/12/21 05:53:56;;;;;;;111.57;9.88;;;6.80;99.90;;;;;;5090972;27;20043;-81
2022/12/21 05:56:22;;;;;;;89.13;8.55;;;7.40;99.90;;;;;;5074227;27;20039;-80
2022/12/21 05:58:49;;;;;;;84.20;8.77;;;7.10;99.90;;;;;;5108566;27;20053;-81
2022/12/21 06:01:15;;;;;;;83.93;9.35;;;6.10;99.90;;;;;;5090888;27;20035;-81
2022/12/21 06:03:41;;;;;;;75.18;10.73;;;6.70;99.90;;;;;;5091317;27;20125;-82
2022/12/21 06:06:13;;;;;;;71.57;8.90;;;6.20;99.90;;;;;;5108399;27;20047;-81
2022/12/21 06:08:39;;;;;;;73.47;9.63;;;7.10;99.90;;;;;;5108548;27;20039;-81
2022/12/21 06:11:27;;;;;;;79.40;10.05;;;6.20;99.90;;;;;;5090851;27;20043;-81
2022/12/21 06:13:53;;;;;;;68.05;8.30;;;6.20;99.90;;;;;;5107952;27;20058;-81
2022/12/21 06:16:22;;;;;;;76.90;9.73;;;6.20;99.90;;;;;;5091835;28;20125;-81
2022/12/21 06:18:48;;;;;;;76.60;10.50;;;6.10;99.90;;;;;;5090927;27;20043;-81
2022/12/21 06:21:15;;;;;;;60.85;9.82;;;6.10;99.90;;;;;;5107751;27;20043;-81
2022/12/21 06:23:42;;;;;;;64.60;9.80;;;6.70;99.90;;;;;;5107286;27;20390;-81
2022/12/21 06:26:11;;;;;;;74.80;9.02;;;6.10;99.90;;;;;;5107502;27;20036;-81
2022/12/21 06:28:36;;;;;;;93.10;8.68;;;7.30;99.90;;;;;;5107174;27;20047;-82
2022/12/21 06:31:10;;;;;;;119.85;10.05;;;6.70;99.90;;;;;;5090786;27;20435;-81
2022/12/21 06:33:36;;;;;;;147.48;10.23;;;6.10;99.90;;;;;;5090561;27;20043;-79
2022/12/21 06:36:03;;;;;;;150.68;11.70;;;6.30;99.90;;;;;;5108020;27;20039;-79
2022/12/21 06:38:30;;;;;;;98.25;10.73;;;6.10;99.90;;;;;;5107818;27;20079;-79
2022/12/21 06:41:08;;;;;;;105.03;10.95;;;6.70;99.90;;;;;;5090193;27;20085;-81
2022/12/21 06:43:36;;;;;;;36.17;7.45;;;6.10;99.90;;;;;;5106982;28;20047;-80
2022/12/21 06:46:05;;;;;;;79.68;10.88;;;6.10;99.90;;;;;;5090475;28;20047;-81
2022/12/21 06:48:32;;;;;;;67.13;8.73;;;6.00;99.90;;;;;;5106888;28;20035;-82
2022/12/21 06:51:03;;;;;;;77.90;10.10;;;6.10;99.90;;;;;;5107197;28;20550;-81
2022/12/21 06:53:31;;;;;;;70.90;9.52;;;6.10;99.90;;;;;;5106921;28;20039;-81
2022/12/21 06:56:01;;;;;;;44.88;9.45;;;6.00;99.90;;;;;;5107405;28;20050;-80
2022/12/21 06:58:28;;;;;;;68.30;10.18;;;6.50;99.90;;;;;;5089822;28;20043;-83
2022/12/21 07:00:53;;;;;;;61.95;11.10;;;6.20;99.90;;;;;;5107117;28;20424;-82
2022/12/21 07:03:20;;;;;;;60.03;10.52;;;7.20;99.90;;;;;;5107532;28;20050;-83
2022/12/21 07:05:46;;;;;;;60.03;10.23;;;6.10;99.90;;;;;;5090310;28;20368;-82
2022/12/21 07:08:11;;;;;;;48.08;10.02;;;7.10;99.90;;;;;;5125960;28;20066;-82
2022/12/21 07:10:38;;;;;;;90.13;11.43;;;7.30;99.90;;;;;;5107194;28;20074;-81
2022/12/21 07:13:04;;;;;;;55.10;10.93;;;6.10;99.90;;;;;;5107821;28;20043;-81
2022/12/21 07:15:33;;;;;;;82.50;10.68;;;6.90;99.90;;;;;;5107165;28;20394;-81
2022/12/21 07:17:59;;;;;;;73.15;11.20;;;6.60;99.90;;;;;;5125286;27;20051;-80
2022/12/21 07:20:24;;;;;;;68.10;12.45;;;6.10;99.90;;;;;;5107841;27;20507;-80
2022/12/21 07:22:50;;;;;;;74.47;10.52;;;6.10;99.90;;;;;;5107721;28;20051;-81
2022/12/21 07:25:16;;;;;;;53.03;11.10;;;6.50;99.90;;;;;;5109279;28;20494;-80
2022/12/21 07:27:42;;;;;;;56.58;11.13;;;6.10;99.90;;;;;;5107555;28;20035;-79
2022/12/21 07:30:08;;;;;;;59.40;12.10;;;6.50;99.90;;;;;;5090559;28;20043;-80
2022/12/21 07:32:34;;;;;;;98.72;13.60;;;6.10;99.90;;;;;;5056659;28;20055;-82
2022/12/21 07:35:00;;;;;;;57.17;12.65;;;6.20;99.90;;;;;;5090561;28;20048;-80
2022/12/21 07:37:25;;;;;;;89.05;13.95;;;6.60;99.90;;;;;;5073594;28;20458;-79
2022/12/21 07:39:51;;;;;;;130.35;15.50;;;6.50;99.90;;;;;;5072968;28;20394;-80
2022/12/21 07:42:17;;;;;;;113.05;14.25;;;6.20;99.90;;;;;;5107605;28;20044;-82
2022/12/21 07:44:42;;;;;;;80.38;14.73;;;7.30;99.90;;;;;;5090631;28;20045;-82
2022/12/21 07:47:08;;;;;;;73.97;14.07;;;6.30;99.90;;;;;;5073708;28;20503;-81
2022/12/21 07:49:34;;;;;;;83.50;14.80;;;6.30;99.90;;;;;;5107607;28;20051;-81
2022/12/21 07:52:00;;;;;;;105.30;18.33;;;6.30;99.90;;;;;;5107334;28;20558;-81
2022/12/21 07:54:26;;;;;;;117.00;18.45;;;6.70;99.90;;;;;;5106893;28;20039;-82
2022/12/21 07:56:51;;;;;;;75.70;16.58;;;6.30;99.90;;;;;;5106781;28;20050;-81
2022/12/21 07:59:17;;;;;;;74.80;17.02;;;6.50;99.90;;;;;;5089867;28;20500;-81
2022/12/21 08:01:43;;;;;;;75.30;17.70;;;6.30;99.90;;;;;;5106893;28;20044;-81
2022/12/21 08:04:09;;;;;;;73.28;16.73;;;6.60;99.90;;;;;;5089698;28;20505;-81
2022/12/21 08:06:35;;;;;;;67.78;17.02;;;7.20;99.90;;;;;;5106908;28;20057;-81
2022/12/21 08:09:00;;;;;;;77.07;16.80;;;6.40;99.90;;;;;;5107110;28;20116;-81
2022/12/21 08:11:28;;;;;;;66.65;16.17;;;7.30;99.90;;;;;;5089094;28;20423;-81
2022/12/21 08:13:55;;;;;;;81.07;16.55;;;6.40;99.90;;;;;;5106688;28;20101;-81
2022/12/21 08:16:21;;;;;;;73.70;16.85;;;6.40;99.90;;;;;;5090537;28;20432;-81
2022/12/21 08:18:47;;;;;;;63.67;16.30;;;7.50;99.90;;;;;;5089111;28;20036;-82
2022/12/21 08:21:13;;;;;;;76.45;17.33;;;7.50;99.90;;;;;;5106833;28;20122;-82
2022/12/21 08:23:40;;;;;;;62.40;16.58;;;6.80;99.90;;;;;;5088974;28;20051;-81
2022/12/21 08:26:10;;;;;;;66.07;15.75;;;6.40;99.90;;;;;;5089389;28;20043;-82
2022/12/21 08:28:36;;;;;;;75.57;17.85;;;6.50;99.90;;;;;;5123531;27;20482;-82
2022/12/21 08:31:06;;;;;;;56.90;16.15;;;6.50;99.90;;;;;;5123175;27;20047;-81
2022/12/21 08:33:32;;;;;;;58.15;15.98;;;6.50;99.90;;;;;;5106379;28;20040;-81
2022/12/21 08:35:58;;;;;;;51.20;16.23;;;7.20;99.90;;;;;;5106025;28;20042;-81
2022/12/21 08:38:25;;;;;;;63.70;17.60;;;6.80;99.90;;;;;;5089025;28;20070;-83
2022/12/21 08:40:51;;;;;;;66.10;17.67;;;6.50;99.90;;;;;;5089123;28;20077;-85
2022/12/21 08:43:18;;;;;;;56.50;16.08;;;7.10;99.90;;;;;;5089792;28;20057;-83
2022/12/21 08:45:44;;;;;;;61.88;16.65;;;6.50;99.90;;;;;;5106209;28;20400;-83
2022/12/21 08:48:11;;;;;;;72.32;16.13;;;6.50;99.90;;;;;;5104971;28;20051;-84
2022/12/21 08:50:37;;;;;;;78.88;15.90;;;6.50;99.90;;;;;;5088724;28;20042;-84
2022/12/21 08:53:02;;;;;;;106.07;18.15;;;6.50;99.90;;;;;;5105200;28;20047;-84
2022/12/21 08:55:30;;;;;;;85.90;17.05;;;6.50;99.90;;;;;;5088892;28;20141;-83
2022/12/21 08:57:55;;;;;;;92.05;18.48;;;6.50;99.90;;;;;;5088367;28;20043;-84
2022/12/21 09:00:21;;;;;;;106.25;19.50;;;7.60;99.90;;;;;;5089315;28;20130;-84
2022/12/21 09:02:47;;;;;;;77.95;17.50;;;6.60;99.90;;;;;;5105689;28;20487;-83
2022/12/21 09:05:12;;;;;;;103.85;19.92;;;6.60;99.90;;;;;;5089986;28;20399;-84
2022/12/21 09:07:38;;;;;;;84.95;18.33;;;6.90;99.90;;;;;;5089036;28;20436;-84
2022/12/21 09:10:04;;;;;;;81.78;17.65;;;7.50;99.90;;;;;;5072112;28;20066;-83
2022/12/21 09:12:30;;;;;;;89.63;19.08;;;6.70;99.90;;;;;;5105920;28;20502;-84
2022/12/21 09:14:55;;;;;;;75.72;18.42;;;6.70;99.90;;;;;;5105664;28;20046;-84
2022/12/21 09:17:21;;;;;;;69.22;17.67;;;7.60;99.90;;;;;;5106034;28;20054;-84
2022/12/21 09:19:47;;;;;;;54.03;16.83;;;6.80;99.90;;;;;;5105941;28;20050;-84
2022/12/21 09:22:12;;;;;;;62.00;17.27;;;6.80;99.90;;;;;;5088574;28;20048;-83
2022/12/21 09:24:38;;;;;;;58.47;17.88;;;6.80;99.90;;;;;;5105487;28;20077;-82
2022/12/21 09:27:04;;;;;;;63.90;17.50;;;6.80;99.90;;;;;;5104606;28;20043;-82
2022/12/21 09:29:29;;;;;;;58.05;19.40;;;7.60;99.90;;;;;;5088390;28;20041;-82
2022/12/21 09:31:55;;;;;;;55.30;18.42;;;7.50;99.90;;;;;;5104792;28;20138;-82
2022/12/21 09:34:21;;;;;;;48.65;17.35;;;6.90;99.90;;;;;;5105660;28;20040;-82
2022/12/21 09:36:47;;;;;;;66.03;18.75;;;7.00;99.90;;;;;;5104903;28;20454;-81
2022/12/21 09:39:12;;;;;;;65.05;17.90;;;7.00;99.90;;;;;;5105814;28;20043;-81
2022/12/21 09:41:41;;;;;;;48.53;17.40;;;7.00;99.90;;;;;;5087722;28;20487;-82
2022/12/21 09:44:32;;;;;;;64.38;17.30;;;7.00;99.90;;;;;;5087111;28;20043;-82
2022/12/21 09:47:03;;;;;;;56.83;16.45;;;7.00;99.90;;;;;;5088028;28;20044;-82
2022/12/21 09:49:43;;;;;;;67.32;19.38;;;7.00;99.90;;;;;;5104723;28;20080;-82
2022/12/21 09:52:22;;;;;;;47.67;17.52;;;7.00;99.90;;;;;;5087720;28;20047;-82
2022/12/21 09:55:06;;;;;;;56.95;16.83;;;7.00;99.90;;;;;;5088191;28;20047;-83
2022/12/21 09:57:36;;;;;;;69.22;18.90;;;7.00;99.90;;;;;;5087775;28;20134;-81
2022/12/21 10:00:12;;;;;;;58.15;18.83;;;7.00;99.90;;;;;;5104447;28;20258;-82
2022/12/21 10:02:57;;;;;;;55.72;18.30;;;7.00;99.90;;;;;;5121729;27;20051;-81
2022/12/21 10:05:51;;;;;;;52.42;17.58;;;7.10;99.90;;;;;;5104570;28;20462;-81
2022/12/21 10:08:26;;;;;;;55.20;16.77;;;7.10;99.90;;;;;;5105224;28;20386;-82
2022/12/21 10:11:18;;;;;;;58.03;18.10;;;7.10;99.90;;;;;;5087344;28;20042;-82
2022/12/21 10:13:58;;;;;;;51.40;18.27;;;7.10;99.90;;;;;;5104107;28;20051;-82
2022/12/21 10:16:23;;;;;;;68.07;18.80;;;7.20;99.90;;;;;;5104261;28;20056;-81
2022/12/21 10:19:07;;;;;;;53.70;18.00;;;7.60;99.90;;;;;;5104260;28;20058;-81
2022/12/21 10:21:36;;;;;;;60.53;19.05;;;7.20;99.90;;;;;;5089822;27;20039;-81
2022/12/21 10:24:05;;;;;;;61.40;20.73;;;7.30;99.90;;;;;;5107337;27;20039;-81
2022/12/21 10:26:33;;;;;;;64.35;21.92;;;7.30;99.90;;;;;;5107615;27;20047;-81
2022/12/21 10:28:59;;;;;;;61.42;21.67;;;7.30;99.90;;;;;;5107629;27;20057;-82
2022/12/21 10:31:33;;;;;;;47.72;18.70;;;7.50;99.90;;;;;;5107159;27;20047;-82
2022/12/21 10:34:05;;;;;;;63.08;20.45;;;8.00;99.90;;;;;;5107713;27;20046;-82
2022/12/21 10:36:37;;;;;;;58.15;19.90;;;7.40;99.90;;;;;;5107057;27;20043;-80
2022/12/21 10:39:12;;;;;;;56.65;20.25;;;8.00;99.90;;;;;;5107717;27;20047;-80
2022/12/21 10:41:42;;;;;;;55.50;19.63;;;8.30;99.90;;;;;;5107345;28;20399;-81
2022/12/21 10:44:10;;;;;;;47.63;19.25;;;7.50;99.90;;;;;;5089908;27;20114;-81
2022/12/21 10:46:37;;;;;;;54.33;20.27;;;7.50;99.90;;;;;;5107652;27;20070;-81
2022/12/21 10:49:34;;;;;;;55.45;20.30;;;7.60;99.90;;;;;;5107360;28;20054;-81
2022/12/21 10:52:33;;;;;;;52.63;19.42;;;7.50;99.90;;;;;;5084483;28;20059;-81
2022/12/21 10:54:59;;;;;;;45.05;18.67;;;7.60;99.90;;;;;;5107022;28;20122;-80
2022/12/21 10:57:27;;;;;;;42.50;17.27;;;7.50;99.90;;;;;;5094067;27;20039;-79
2022/12/21 10:59:52;;;;;;;43.63;18.20;;;7.50;99.90;;;;;;5094759;27;20184;-81
2022/12/21 11:02:37;;;;;;;38.25;17.33;;;7.50;99.90;;;;;;5094309;27;20125;-81
2022/12/21 11:05:03;;;;;;;49.42;18.88;;;7.90;99.90;;;;;;5130238;27;20043;-81
2022/12/21 11:07:30;;;;;;;45.33;18.88;;;7.40;99.90;;;;;;5094499;27;20051;-82
2022/12/21 11:09:58;;;;;;;49.33;17.45;;;7.50;99.90;;;;;;5129243;27;20039;-82
2022/12/21 11:12:25;;;;;;;36.97;16.73;;;7.60;99.90;;;;;;5129753;27;20042;-81
2022/12/21 11:14:52;;;;;;;40.20;17.95;;;7.60;99.90;;;;;;5110884;27;20043;-81
2022/12/21 11:17:28;;;;;;;46.55;17.98;;;7.60;99.90;;;;;;5094235;27;20521;-81
2022/12/21 11:20:20;;;;;;;43.80;18.45;;;7.70;99.90;;;;;;5110950;27;20047;-82
2022/12/21 11:22:50;;;;;;;35.97;17.73;;;7.70;99.90;;;;;;5125381;27;20051;-82
2022/12/21 11:25:27;;;;;;;44.10;17.38;;;8.40;99.90;;;;;;5110951;27;20088;-81
2022/12/21 11:28:02;;;;;;;45.28;17.65;;;7.80;99.90;;;;;;5129522;27;20474;-80
2022/12/21 11:30:31;;;;;;;43.40;15.93;;;7.80;99.90;;;;;;5129513;27;20124;-81
2022/12/21 11:32:59;;;;;;;36.72;15.20;;;7.90;99.90;;;;;;5110546;27;20047;-81
2022/12/21 11:35:34;;;;;;;39.10;16.45;;;7.90;99.90;;;;;;5093669;27;20051;-81
2022/12/21 11:38:13;;;;;;;45.20;16.05;;;8.00;99.90;;;;;;5111363;27;20051;-81
2022/12/21 11:40:54;;;;;;;38.65;16.83;;;8.30;99.90;;;;;;5110772;27;20057;-81
2022/12/21 11:43:19;;;;;;;37.03;15.57;;;8.10;99.90;;;;;;5110595;27;20039;-81
2022/12/21 11:46:03;;;;;;;43.20;15.98;;;8.10;99.90;;;;;;5111115;27;20076;-82
2022/12/21 11:48:53;;;;;;;42.58;15.65;;;8.20;99.90;;;;;;5111187;27;20506;-83
2022/12/21 11:51:39;;;;;;;39.53;14.38;;;8.30;99.90;;;;;;5130673;27;20039;-85
2022/12/21 11:54:23;;;;;;;37.95;15.10;;;8.30;99.90;;;;;;5110970;27;20054;-84
2022/12/21 11:56:57;;;;;;;35.53;14.15;;;8.30;99.90;;;;;;5110714;27;20538;-84
2022/12/21 11:59:49;;;;;;;37.63;14.45;;;8.30;99.90;;;;;;5111278;27;20055;-84
2022/12/21 12:02:43;;;;;;;34.20;13.75;;;8.30;99.90;;;;;;5110950;27;20075;-85
2022/12/21 12:05:33;;;;;;;42.33;14.23;;;8.40;99.90;;;;;;5094793;27;20039;-84
2022/12/21 12:08:10;;;;;;;31.48;12.75;;;8.40;99.90;;;;;;5110339;27;20502;-85
2022/12/21 12:10:53;;;;;;;32.92;12.95;;;9.00;99.90;;;;;;5111256;27;20529;-83
2022/12/21 12:13:28;;;;;;;31.65;12.70;;;8.40;99.90;;;;;;5093102;27;20075;-83
2022/12/21 12:16:17;;;;;;;31.67;13.40;;;8.50;99.90;;;;;;5110237;27;20482;-83
2022/12/21 12:18:51;;;;;;;33.67;13.20;;;8.50;99.90;;;;;;5092773;27;20574;-84
2022/12/21 12:21:39;;;;;;;31.15;11.05;;;7.70;99.90;;;;;;5110499;27;20134;-85
2022/12/21 12:24:40;;;;;;;26.90;12.10;;;8.60;99.90;;;;;;5107035;28;20139;-84
2022/12/21 12:27:41;;;;;;;26.95;10.82;;;8.70;99.90;;;;;;5107404;28;20437;-84
2022/12/21 12:30:12;;;;;;;29.42;10.93;;;8.70;99.90;;;;;;5108376;28;20043;-84
2022/12/21 12:33:12;;;;;;;31.40;11.40;;;8.80;99.90;;;;;;5089958;28;20086;-85
2022/12/21 12:36:02;;;;;;;39.38;13.20;;;8.80;99.90;;;;;;5106220;28;20048;-86
2022/12/21 12:38:54;;;;;;;34.92;11.73;;;8.80;99.90;;;;;;5089661;28;20133;-86
2022/12/21 12:41:19;;;;;;;31.17;10.63;;;8.80;99.90;;;;;;5096726;28;20058;-85
2022/12/21 12:43:58;;;;;;;34.25;12.30;;;8.90;99.90;;;;;;5088763;28;20126;-86
2022/12/21 12:46:43;;;;;;;32.15;11.15;;;8.90;99.90;;;;;;5106628;28;20052;-86
2022/12/21 12:49:27;;;;;;;32.50;10.95;;;8.90;99.90;;;;;;5105708;28;20174;-85
2022/12/21 12:52:09;;;;;;;31.98;10.50;;;8.90;99.90;;;;;;5088286;28;20134;-86
2022/12/21 12:55:01;;;;;;;34.53;11.15;;;8.90;99.90;;;;;;5106153;28;20044;-86
2022/12/21 12:57:37;;;;;;;32.97;10.43;;;9.00;99.90;;;;;;5096789;28;20048;-86
2022/12/21 13:00:09;;;;;;;31.60;10.57;;;8.90;99.90;;;;;;5107020;28;20048;-84
2022/12/21 13:02:56;;;;;;;29.30;10.20;;;8.90;99.90;;;;;;5106943;28;20040;-85
2022/12/21 13:05:46;;;;;;;30.33;11.77;;;9.00;99.90;;;;;;5105393;28;20051;-84
2022/12/21 13:08:35;;;;;;;29.70;12.00;;;8.90;99.90;;;;;;5105639;28;20104;-85